createdAt,value
2023-03-27T00:01:38.233Z,96614.44
2023-03-27T00:04:09.259Z,96612.38
2023-03-27T00:06:37.737Z,96617.63
2023-03-27T00:09:08.457Z,96614.16
2023-03-27T00:11:37.101Z,96624.13
2023-03-27T00:14:05.788Z,96613.09
2023-03-27T00:16:35.718Z,96620.38
2023-03-27T00:19:05.610Z,96607.47
2023-03-27T00:21:34.393Z,96614.34
2023-03-27T00:24:02.839Z,96614.72
2023-03-27T00:26:31.636Z,96619.69
2023-03-27T00:29:00.224Z,96619.50
2023-03-27T00:31:28.498Z,96621.13
2023-03-27T00:33:58.688Z,96619.28
2023-03-27T00:36:27.349Z,96623.16
2023-03-27T00:38:55.857Z,96621.13
2023-03-27T00:41:24.681Z,96617.94
2023-03-27T00:43:56.430Z,96617.63
2023-03-27T00:46:31.665Z,96607.00
2023-03-27T00:49:04.457Z,96609.53
2023-03-27T00:51:32.886Z,96609.41
2023-03-27T00:54:02.027Z,96612.66
2023-03-27T00:56:30.760Z,96609.19
2023-03-27T00:59:02.678Z,96600.66
2023-03-27T01:01:32.119Z,96601.50
2023-03-27T01:04:05.839Z,96594.75
2023-03-27T01:06:34.509Z,96591.31
2023-03-27T01:09:05.054Z,96583.13
2023-03-27T01:11:40.362Z,96578.75
2023-03-27T01:14:14.763Z,96569.09
2023-03-27T01:16:50.390Z,96582.06
2023-03-27T01:19:43.080Z,96570.47
2023-03-27T01:22:26.255Z,96568.31
2023-03-27T01:25:21.690Z,96565.31
2023-03-27T01:28:12.678Z,96565.97
2023-03-27T01:30:43.208Z,96565.44
2023-03-27T01:33:27.021Z,96563.97
2023-03-27T01:36:34.897Z,96551.56
2023-03-27T01:39:30.781Z,96546.41
2023-03-27T01:42:06.429Z,96546.91
2023-03-27T01:44:45.306Z,96546.81
2023-03-27T01:47:23.380Z,96547.13
2023-03-27T01:49:54.816Z,96548.38
2023-03-27T01:52:27.130Z,96540.94
2023-03-27T01:55:03.428Z,96542.88
2023-03-27T01:57:36.852Z,96538.00
2023-03-27T02:00:22.653Z,96540.69
2023-03-27T02:02:54.475Z,96533.25
2023-03-27T02:05:26.478Z,96530.25
2023-03-27T02:07:58.964Z,96526.19
2023-03-27T02:10:33.380Z,96517.81
2023-03-27T02:13:06.561Z,96513.59
2023-03-27T02:15:36.346Z,96520.69
2023-03-27T02:18:06.264Z,96519.75
2023-03-27T02:20:35.103Z,96523.06
2023-03-27T02:23:03.674Z,96519.63
2023-03-27T02:25:35.183Z,96518.25
2023-03-27T02:28:14.230Z,96523.41
2023-03-27T02:30:46.362Z,96522.69
2023-03-27T02:33:41.704Z,96525.00
2023-03-27T02:36:21.341Z,96528.59
2023-03-27T02:38:53.968Z,96529.16
2023-03-27T02:41:27.934Z,96529.25
2023-03-27T02:44:02.200Z,96527.06
2023-03-27T02:46:33.171Z,96531.16
2023-03-27T02:49:04.618Z,96529.34
2023-03-27T02:51:37.123Z,96530.50
2023-03-27T02:54:07.897Z,96528.50
2023-03-27T02:56:40.392Z,96529.63
2023-03-27T02:59:11.033Z,96533.25
2023-03-27T03:01:40.652Z,96541.16
2023-03-27T03:04:12.502Z,96537.00
2023-03-27T03:06:42.293Z,96544.72
2023-03-27T03:09:11.207Z,96542.97
2023-03-27T03:11:47.088Z,96538.97
2023-03-27T03:14:15.870Z,96546.34
2023-03-27T03:16:44.159Z,96549.03
2023-03-27T03:19:12.860Z,96550.56
2023-03-27T03:21:41.150Z,96546.72
2023-03-27T03:24:10.522Z,96548.69
2023-03-27T03:26:40.140Z,96555.81
2023-03-27T03:29:10.836Z,96548.41
2023-03-27T03:31:46.779Z,96545.78
2023-03-27T03:34:18.510Z,96549.56
2023-03-27T03:36:49.767Z,96548.38
2023-03-27T03:39:18.913Z,96546.78
2023-03-27T03:41:49.085Z,96549.56
2023-03-27T03:44:17.570Z,96552.88
2023-03-27T03:46:45.903Z,96555.94
2023-03-27T03:49:14.375Z,96551.94
2023-03-27T03:51:42.578Z,96541.56
2023-03-27T03:54:11.570Z,96544.38
2023-03-27T03:56:41.852Z,96552.81
2023-03-27T03:59:12.914Z,96541.84
2023-03-27T04:01:43.619Z,96541.84
2023-03-27T04:04:15.001Z,96546.66
2023-03-27T04:06:43.325Z,96546.22
2023-03-27T04:09:12.513Z,96549.69
2023-03-27T04:11:40.740Z,96548.44
2023-03-27T04:14:09.146Z,96553.63
2023-03-27T04:16:38.849Z,96555.72
2023-03-27T04:19:07.393Z,96548.19
2023-03-27T04:21:36.559Z,96548.91
2023-03-27T04:24:06.216Z,96549.38
2023-03-27T04:26:35.511Z,96542.75
2023-03-27T04:29:04.155Z,96546.84
2023-03-27T04:31:34.754Z,96549.41
2023-03-27T04:34:04.834Z,96546.13
2023-03-27T04:36:33.171Z,96549.44
2023-03-27T04:39:02.449Z,96552.78
2023-03-27T04:41:30.873Z,96551.81
2023-03-27T04:43:59.784Z,96554.16
2023-03-27T04:46:28.005Z,96550.94
2023-03-27T04:48:56.684Z,96557.34
2023-03-27T04:51:26.719Z,96554.91
2023-03-27T04:53:56.607Z,96553.16
2023-03-27T04:56:25.107Z,96550.75
2023-03-27T04:58:53.666Z,96553.88
2023-03-27T05:01:22.909Z,96558.50
2023-03-27T05:03:51.736Z,96555.22
2023-03-27T05:06:20.224Z,96550.56
2023-03-27T05:08:50.285Z,96556.25
2023-03-27T05:11:22.250Z,96556.53
2023-03-27T05:13:51.075Z,96548.78
2023-03-27T05:16:19.401Z,96558.22
2023-03-27T05:18:47.937Z,96553.50
2023-03-27T05:21:16.863Z,96556.53
2023-03-27T05:23:45.301Z,96557.25
2023-03-27T05:26:14.939Z,96557.88
2023-03-27T05:28:43.438Z,96546.41
2023-03-27T05:31:12.784Z,96557.84
2023-03-27T05:33:41.339Z,96561.41
2023-03-27T05:36:10.443Z,96556.16
2023-03-27T05:38:39.773Z,96558.94
2023-03-27T05:41:08.562Z,96566.31
2023-03-27T05:43:38.916Z,96568.88
2023-03-27T05:46:07.782Z,96564.66
2023-03-27T05:48:38.703Z,96563.94
2023-03-27T05:51:07.363Z,96561.22
2023-03-27T05:53:39.342Z,96563.13
2023-03-27T05:56:08.582Z,96572.84
2023-03-27T05:58:38.934Z,96578.16
2023-03-27T06:01:07.974Z,96580.38
2023-03-27T06:03:38.567Z,96590.94
2023-03-27T06:06:11.543Z,96584.09
2023-03-27T06:08:40.319Z,96587.28
2023-03-27T06:11:12.526Z,96598.78
2023-03-27T06:13:42.790Z,96597.72
2023-03-27T06:16:11.829Z,96608.03
2023-03-27T06:18:40.776Z,96601.81
2023-03-27T06:21:09.044Z,96604.22
2023-03-27T06:23:37.721Z,96611.06
2023-03-27T06:26:06.467Z,96619.22
2023-03-27T06:28:35.055Z,96619.94
2023-03-27T06:31:04.739Z,96619.63
2023-03-27T06:33:33.249Z,96628.50
2023-03-27T06:36:01.510Z,96636.34
2023-03-27T06:38:31.653Z,96644.19
2023-03-27T06:41:00.731Z,96649.22
2023-03-27T06:43:29.287Z,96654.28
2023-03-27T06:45:58.309Z,96650.16
2023-03-27T06:48:28.834Z,96650.66
2023-03-27T06:50:57.183Z,96667.88
2023-03-27T06:53:28.156Z,96656.47
2023-03-27T06:55:58.626Z,96651.81
2023-03-27T06:58:27.587Z,96663.28
2023-03-27T07:00:56.159Z,96661.91
2023-03-27T07:03:25.881Z,96661.56
2023-03-27T07:05:56.055Z,96662.84
2023-03-27T07:08:25.578Z,96674.84
2023-03-27T07:13:26.233Z,96674.06
2023-03-27T07:15:55.075Z,96675.22
2023-03-27T07:18:23.772Z,96684.50
2023-03-27T07:20:52.285Z,96680.91
2023-03-27T07:23:22.475Z,96683.69
2023-03-27T07:25:58.800Z,96687.34
2023-03-27T07:28:27.751Z,96690.25
2023-03-27T07:30:56.379Z,96697.16
2023-03-27T07:33:25.487Z,96699.25
2023-03-27T07:35:53.808Z,96704.22
2023-03-27T07:38:24.048Z,96705.84
2023-03-27T07:40:52.282Z,96704.69
2023-03-27T07:43:20.787Z,96713.78
2023-03-27T07:45:49.808Z,96716.25
2023-03-27T07:48:19.097Z,96713.06
2023-03-27T07:50:47.927Z,96721.78
2023-03-27T07:53:32.300Z,96721.25
2023-03-27T07:56:04.022Z,96715.06
2023-03-27T07:58:32.731Z,96719.38
2023-03-27T08:01:02.484Z,96725.78
2023-03-27T08:03:32.259Z,96730.00
2023-03-27T08:06:01.781Z,96737.47
2023-03-27T08:08:31.058Z,96735.56
2023-03-27T08:11:00.142Z,96742.41
2023-03-27T08:13:30.474Z,96735.53
2023-03-27T08:16:07.089Z,96743.31
2023-03-27T08:18:36.591Z,96737.22
2023-03-27T08:21:07.200Z,96737.81
2023-03-27T08:23:36.300Z,96745.22
2023-03-27T08:26:05.629Z,96748.34
2023-03-27T08:28:36.749Z,96752.53
2023-03-27T08:31:11.477Z,96764.09
2023-03-27T08:33:41.989Z,96763.41
2023-03-27T08:36:11.613Z,96763.25
2023-03-27T08:38:41.438Z,96768.78
2023-03-27T08:41:22.412Z,96784.94
2023-03-27T08:43:53.395Z,96780.72
2023-03-27T08:46:23.883Z,96783.66
2023-03-27T08:48:55.402Z,96781.72
2023-03-27T08:51:26.957Z,96779.56
2023-03-27T08:53:58.405Z,96787.84
2023-03-27T08:56:27.519Z,96789.56
2023-03-27T08:58:57.529Z,96806.31
2023-03-27T09:01:29.677Z,96810.38
2023-03-27T09:04:03.005Z,96818.75
2023-03-27T09:06:38.353Z,96822.22
2023-03-27T09:09:12.366Z,96819.28
2023-03-27T09:11:52.502Z,96829.56
2023-03-27T09:14:29.313Z,96829.16
2023-03-27T09:16:58.144Z,96845.25
2023-03-27T09:19:33.075Z,96847.81
2023-03-27T09:22:06.630Z,96857.25
2023-03-27T09:24:38.020Z,96858.03
2023-03-27T09:27:17.811Z,96850.72
2023-03-27T09:30:05.603Z,96866.19
2023-03-27T09:32:35.107Z,96881.13
2023-03-27T09:35:04.774Z,96887.09
2023-03-27T09:37:34.510Z,96888.44
2023-03-27T09:40:07.542Z,96891.28
2023-03-27T09:42:38.876Z,96895.28
2023-03-27T09:45:11.609Z,96906.19
2023-03-27T09:47:44.356Z,96906.72
2023-03-27T09:50:27.879Z,96921.50
2023-03-27T09:53:09.396Z,96923.91
2023-03-27T09:55:49.762Z,96926.63
2023-03-27T09:58:25.327Z,96930.34
2023-03-27T10:01:09.818Z,96931.41
2023-03-27T10:03:39.321Z,96937.50
2023-03-27T10:06:10.391Z,96947.38
2023-03-27T10:08:42.117Z,96958.16
2023-03-27T10:11:16.665Z,96961.25
2023-03-27T10:13:47.602Z,96968.69
2023-03-27T10:16:18.814Z,96967.41
2023-03-27T10:18:49.198Z,96979.53
2023-03-27T10:21:36.130Z,96974.78
2023-03-27T10:24:06.784Z,96975.22
2023-03-27T10:26:38.225Z,97001.94
2023-03-27T10:29:20.407Z,96998.03
2023-03-27T10:31:53.704Z,96992.78
2023-03-27T10:34:31.020Z,96992.75
2023-03-27T10:37:01.583Z,96999.63
2023-03-27T10:39:32.128Z,97013.63
2023-03-27T10:42:04.553Z,97004.09
2023-03-27T10:44:32.806Z,97014.75
2023-03-27T10:47:03.452Z,97014.28
2023-03-27T10:49:37.644Z,97006.69
2023-03-27T10:52:16.569Z,97012.31
2023-03-27T10:54:47.593Z,97010.09
2023-03-27T10:57:16.355Z,97015.63
2023-03-27T10:59:48.865Z,97023.66
2023-03-27T11:02:22.136Z,97018.75
2023-03-27T11:04:53.906Z,97029.28
2023-03-27T11:07:28.204Z,97018.47
2023-03-27T11:10:00.293Z,97037.66
2023-03-27T11:12:30.488Z,97040.09
2023-03-27T11:15:02.157Z,97026.53
2023-03-27T11:17:37.440Z,97038.75
2023-03-27T11:20:08.637Z,97049.25
2023-03-27T11:22:42.600Z,97053.78
2023-03-27T11:25:20.004Z,97050.53
2023-03-27T11:27:56.025Z,97041.69
2023-03-27T11:30:33.724Z,97052.81
2023-03-27T11:33:32.348Z,97072.03
2023-03-27T11:36:08.650Z,97073.94
2023-03-27T11:38:40.519Z,97082.19
2023-03-27T11:41:14.662Z,97080.25
2023-03-27T11:43:44.461Z,97082.50
2023-03-27T11:46:26.233Z,97095.72
2023-03-27T11:49:06.671Z,97083.66
2023-03-27T11:51:43.332Z,97092.66
2023-03-27T11:54:24.534Z,97091.69
2023-03-27T11:56:54.710Z,97105.09
2023-03-27T11:59:37.486Z,97118.19
2023-03-27T12:02:17.849Z,97098.97
2023-03-27T12:04:52.348Z,97118.16
2023-03-27T12:07:35.769Z,97117.50
2023-03-27T12:10:15.294Z,97124.75
2023-03-27T12:12:56.571Z,97146.06
2023-03-27T12:15:37.054Z,97147.19
2023-03-27T12:18:14.543Z,97152.22
2023-03-27T12:21:03.873Z,97152.22
2023-03-27T12:23:44.534Z,97164.50
2023-03-27T12:26:28.497Z,97165.94
2023-03-27T12:29:23.023Z,97174.31
2023-03-27T12:32:11.721Z,97178.81
2023-03-27T12:34:51.288Z,97174.75
2023-03-27T12:37:24.816Z,97188.50
2023-03-27T12:39:55.042Z,97196.06
2023-03-27T12:42:44.090Z,97199.03
2023-03-27T12:45:18.294Z,97204.44
2023-03-27T12:47:52.317Z,97215.38
2023-03-27T12:50:22.502Z,97222.81
2023-03-27T12:52:53.380Z,97221.69
2023-03-27T12:55:35.318Z,97224.31
2023-03-27T12:58:06.020Z,97239.63
2023-03-27T13:00:34.461Z,97236.75
2023-03-27T13:03:33.091Z,97236.91
2023-03-27T13:06:14.463Z,97248.59
2023-03-27T13:08:54.455Z,97253.09
2023-03-27T13:11:37.418Z,97257.84
2023-03-27T13:14:38.477Z,97260.34
2023-03-27T13:17:25.847Z,97270.84
2023-03-27T13:19:59.959Z,97263.13
2023-03-27T13:22:45.871Z,97266.59
2023-03-27T13:25:31.704Z,97276.53
2023-03-27T13:28:28.503Z,97257.56
2023-03-27T13:30:58.330Z,97278.09
2023-03-27T13:33:28.204Z,97276.13
2023-03-27T13:36:14.507Z,97282.94
2023-03-27T13:39:13.850Z,97275.41
2023-03-27T13:42:03.818Z,97287.78
2023-03-27T13:45:00.354Z,97289.81
2023-03-27T13:47:48.636Z,97305.50
2023-03-27T13:50:41.899Z,97304.41
2023-03-27T13:53:33.350Z,97303.69
2023-03-27T13:56:11.110Z,97327.91
2023-03-27T13:59:15.085Z,97319.03
2023-03-27T14:01:54.095Z,97333.56
2023-03-27T14:04:33.363Z,97339.09
2023-03-27T14:07:54.129Z,97336.69
2023-03-27T14:10:32.522Z,97352.94
2023-03-27T14:13:13.436Z,97345.91
2023-03-27T14:15:51.233Z,97359.03
2023-03-27T14:18:44.147Z,97368.88
2023-03-27T14:21:24.536Z,97379.22
2023-03-27T14:24:06.371Z,97399.88
2023-03-27T14:26:35.881Z,97380.91
2023-03-27T14:29:04.184Z,97399.34
2023-03-27T14:31:35.649Z,97407.69
2023-03-27T14:34:06.475Z,97407.63
2023-03-27T14:36:36.019Z,97422.75
2023-03-27T14:39:14.235Z,97424.72
2023-03-27T14:41:47.278Z,97425.13
2023-03-27T14:44:16.113Z,97421.56
2023-03-27T14:46:48.179Z,97430.91
2023-03-27T14:49:20.767Z,97431.69
2023-03-27T14:51:55.457Z,97440.28
2023-03-27T14:54:28.885Z,97447.91
2023-03-27T14:57:00.144Z,97449.03
2023-03-27T14:59:31.639Z,97468.69
2023-03-27T15:02:02.135Z,97472.31
2023-03-27T15:04:32.732Z,97484.63
2023-03-27T15:07:14.442Z,97497.16
2023-03-27T15:09:43.491Z,97482.41
2023-03-27T15:12:12.802Z,97494.41
2023-03-27T15:14:41.669Z,97498.25
2023-03-27T15:17:15.015Z,97506.09
2023-03-27T15:19:48.554Z,97507.00
2023-03-27T15:22:21.085Z,97500.00
2023-03-27T15:24:52.595Z,97517.16
2023-03-27T15:27:24.549Z,97511.78
2023-03-27T15:29:57.972Z,97513.22
2023-03-27T15:32:30.325Z,97504.22
2023-03-27T15:35:03.556Z,97516.16
2023-03-27T15:37:33.018Z,97523.97
2023-03-27T15:40:09.322Z,97520.22
2023-03-27T15:42:48.465Z,97519.81
2023-03-27T15:45:17.919Z,97530.34
2023-03-27T15:48:00.183Z,97522.22
2023-03-27T15:50:30.462Z,97528.06
2023-03-27T15:53:01.565Z,97530.75
2023-03-27T15:55:35.082Z,97535.31
2023-03-27T15:58:16.326Z,97547.16
2023-03-27T16:00:48.803Z,97555.78
2023-03-27T16:03:21.233Z,97544.00
2023-03-27T16:05:51.768Z,97551.72
2023-03-27T16:08:28.566Z,97550.09
2023-03-27T16:10:58.525Z,97553.47
2023-03-27T16:13:30.082Z,97560.84
2023-03-27T16:15:59.585Z,97553.69
2023-03-27T16:18:32.102Z,97552.03
2023-03-27T16:21:10.150Z,97554.75
2023-03-27T16:23:39.088Z,97570.56
2023-03-27T16:26:08.687Z,97573.91
2023-03-27T16:28:37.566Z,97574.47
2023-03-27T16:31:13.211Z,97574.09
2023-03-27T16:33:45.290Z,97595.19
2023-03-27T16:36:17.013Z,97580.16
2023-03-27T16:38:46.093Z,97593.66
2023-03-27T16:41:15.249Z,97600.03
2023-03-27T16:43:44.726Z,97595.50
2023-03-27T16:46:24.331Z,97599.66
2023-03-27T16:48:53.972Z,97607.53
2023-03-27T16:51:25.763Z,97616.06
2023-03-27T16:53:54.584Z,97619.31
2023-03-27T16:56:23.325Z,97617.47
2023-03-27T16:58:52.010Z,97631.56
2023-03-27T17:01:20.517Z,97635.31
2023-03-27T17:03:49.147Z,97641.63
2023-03-27T17:06:19.239Z,97638.22
2023-03-27T17:08:52.575Z,97634.34
2023-03-27T17:11:21.097Z,97644.03
2023-03-27T17:13:50.323Z,97652.06
2023-03-27T17:16:18.629Z,97663.16
2023-03-27T17:18:47.396Z,97652.59
2023-03-27T17:21:15.800Z,97664.72
2023-03-27T17:23:48.374Z,97665.53
2023-03-27T17:26:24.749Z,97666.03
2023-03-27T17:28:53.506Z,97672.09
2023-03-27T17:31:22.116Z,97684.34
2023-03-27T17:33:51.040Z,97677.44
2023-03-27T17:36:33.106Z,97688.78
2023-03-27T17:39:09.779Z,97693.00
2023-03-27T17:41:39.841Z,97703.09
2023-03-27T17:44:08.854Z,97701.41
2023-03-27T17:46:37.424Z,97709.47
2023-03-27T17:49:06.438Z,97703.22
2023-03-27T17:51:35.598Z,97709.47
2023-03-27T17:54:04.533Z,97718.84
2023-03-27T17:56:32.895Z,97719.88
2023-03-27T17:59:03.020Z,97731.31
2023-03-27T18:01:31.653Z,97730.72
2023-03-27T18:04:00.681Z,97744.94
2023-03-27T18:06:29.266Z,97747.59
2023-03-27T18:08:58.261Z,97744.56
2023-03-27T18:11:26.715Z,97750.38
2023-03-27T18:13:55.278Z,97747.66
2023-03-27T18:16:25.137Z,97754.44
2023-03-27T18:18:55.691Z,97756.13
2023-03-27T18:21:24.218Z,97768.38
2023-03-27T18:23:53.936Z,97762.13
2023-03-27T18:26:22.415Z,97769.28
2023-03-27T18:28:52.448Z,97777.78
2023-03-27T18:31:21.023Z,97769.91
2023-03-27T18:33:50.930Z,97787.22
2023-03-27T18:36:19.460Z,97782.22
2023-03-27T18:38:49.733Z,97782.84
2023-03-27T18:41:18.388Z,97787.16
2023-03-27T18:43:47.232Z,97793.78
2023-03-27T18:46:17.317Z,97787.25
2023-03-27T18:48:48.698Z,97785.53
2023-03-27T18:51:19.403Z,97796.91
2023-03-27T18:53:48.061Z,97795.44
2023-03-27T18:56:16.831Z,97795.53
2023-03-27T18:58:45.774Z,97800.94
2023-03-27T19:01:14.113Z,97808.03
2023-03-27T19:03:43.542Z,97814.00
2023-03-27T19:06:12.994Z,97806.31
2023-03-27T19:08:45.844Z,97809.50
2023-03-27T19:11:14.382Z,97809.66
2023-03-27T19:13:42.879Z,97815.97
2023-03-27T19:16:14.535Z,97818.38
2023-03-27T19:18:44.012Z,97823.28
2023-03-27T19:21:12.371Z,97823.31
2023-03-27T19:23:42.545Z,97823.81
2023-03-27T19:26:12.529Z,97831.44
2023-03-27T19:28:41.486Z,97828.78
2023-03-27T19:31:11.198Z,97830.91
2023-03-27T19:33:40.850Z,97828.50
2023-03-27T19:36:10.232Z,97823.00
2023-03-27T19:38:39.745Z,97828.19
2023-03-27T19:41:12.926Z,97830.88
2023-03-27T19:43:41.527Z,97828.50
2023-03-27T19:48:42.503Z,97822.53
2023-03-27T19:51:10.905Z,97832.56
2023-03-27T19:53:39.443Z,97823.88
2023-03-27T19:56:07.921Z,97834.19
2023-03-27T19:58:37.906Z,97832.00
2023-03-27T20:01:07.250Z,97838.56
2023-03-27T20:03:38.824Z,97841.81
2023-03-27T20:06:13.152Z,97837.47
2023-03-27T20:08:43.006Z,97840.19
2023-03-27T20:11:11.256Z,97840.47
2023-03-27T20:13:55.645Z,97836.91
2023-03-27T20:16:26.293Z,97838.03
2023-03-27T20:19:04.625Z,97838.00
2023-03-27T20:21:34.514Z,97838.84
2023-03-27T20:24:03.474Z,97836.38
2023-03-27T20:26:39.188Z,97835.56
2023-03-27T20:29:10.523Z,97844.53
2023-03-27T20:31:39.341Z,97841.81
2023-03-27T20:34:08.776Z,97848.09
2023-03-27T20:36:39.337Z,97848.34
2023-03-27T20:39:09.263Z,97848.38
2023-03-27T20:41:39.214Z,97849.97
2023-03-27T20:44:15.484Z,97850.81
2023-03-27T20:46:47.526Z,97847.78
2023-03-27T20:49:37.645Z,97847.78
2023-03-27T20:52:10.091Z,97851.03
2023-03-27T20:54:38.701Z,97854.53
2023-03-27T20:57:07.244Z,97855.91
2023-03-27T20:59:37.236Z,97853.78
2023-03-27T21:02:05.863Z,97847.44
2023-03-27T21:04:34.825Z,97854.16
2023-03-27T21:07:03.190Z,97858.78
2023-03-27T21:09:32.077Z,97857.44
2023-03-27T21:12:01.414Z,97856.88
2023-03-27T21:14:30.144Z,97856.06
2023-03-27T21:16:59.945Z,97851.03
2023-03-27T21:19:28.846Z,97859.59
2023-03-27T21:21:57.187Z,97850.91
2023-03-27T21:24:25.748Z,97853.06
2023-03-27T21:26:54.005Z,97843.28
2023-03-27T21:29:22.804Z,97851.94
2023-03-27T21:31:51.082Z,97848.94
2023-03-27T21:34:21.094Z,97860.22
2023-03-27T21:36:49.371Z,97857.88
2023-03-27T21:39:18.136Z,97855.59
2023-03-27T21:41:46.439Z,97862.75
2023-03-27T21:44:15.270Z,97864.91
2023-03-27T21:46:43.532Z,97868.97
2023-03-27T21:49:12.222Z,97857.03
2023-03-27T21:51:41.866Z,97862.88
2023-03-27T21:54:10.404Z,97858.66
2023-03-27T21:56:38.837Z,97858.94
2023-03-27T21:59:07.550Z,97853.75
2023-03-27T22:01:35.883Z,97856.19
2023-03-27T22:04:04.502Z,97852.88
2023-03-27T22:06:32.815Z,97860.47
2023-03-27T22:09:02.872Z,97862.81
2023-03-27T22:11:31.369Z,97866.41
2023-03-27T22:14:00.963Z,97869.84
2023-03-27T22:16:29.459Z,97859.63
2023-03-27T22:18:58.392Z,97860.22
2023-03-27T22:21:28.600Z,97860.59
2023-03-27T22:23:58.283Z,97863.84
2023-03-27T22:26:30.137Z,97863.34
2023-03-27T22:28:59.325Z,97863.19
2023-03-27T22:31:29.177Z,97854.78
2023-03-27T22:33:57.892Z,97858.22
2023-03-27T22:36:26.344Z,97858.16
2023-03-27T22:38:55.542Z,97864.22
2023-03-27T22:41:23.835Z,97859.88
2023-03-27T22:43:54.244Z,97865.75
2023-03-27T22:46:24.105Z,97856.22
2023-03-27T22:48:56.424Z,97860.63
2023-03-27T22:51:25.150Z,97860.63
2023-03-27T22:53:54.876Z,97864.63
2023-03-27T22:56:23.225Z,97859.22
2023-03-27T22:58:53.292Z,97863.53
2023-03-27T23:01:21.655Z,97861.91
2023-03-27T23:03:50.501Z,97873.84
2023-03-27T23:06:20.159Z,97869.16
2023-03-27T23:08:49.606Z,97874.28
2023-03-27T23:11:18.941Z,97874.78
2023-03-27T23:13:48.102Z,97872.00
2023-03-27T23:16:17.728Z,97882.19
2023-03-27T23:18:46.853Z,97879.78
2023-03-27T23:21:16.813Z,97887.72
2023-03-27T23:23:45.777Z,97891.72
2023-03-27T23:26:14.397Z,97893.66
2023-03-27T23:28:43.760Z,97895.84
2023-03-27T23:31:13.587Z,97905.91
2023-03-27T23:33:45.112Z,97893.00
2023-03-27T23:36:15.058Z,97909.69
2023-03-27T23:38:44.068Z,97900.03
2023-03-27T23:41:14.079Z,97906.41
2023-03-27T23:43:42.788Z,97909.06
2023-03-27T23:46:11.530Z,97911.00
2023-03-27T23:48:42.112Z,97901.97
2023-03-27T23:51:13.066Z,97901.53
2023-03-27T23:53:41.656Z,97902.97
2023-03-27T23:56:10.737Z,97899.13
2023-03-27T23:58:39.285Z,97901.59
